Time;durP1;ratioP1;P1;durP2;ratioP2;P2;SDS_P1;SDS_P2;PMS_P1;PMS_P2;Temp;Humidity;BMP_temperature;BMP_pressure;BME280_temperature;BME280_humidity;BME280_pressure;Samples;Min_cycle;Max_cycle;Signal;HPM_P1;HPM_P2
2023/11/12 00:02:20;;;;;;;8.13;6.10;;;;;;;2.49;100.00;95946.59;4966720;28;20034;-70
2023/11/12 00:04:47;;;;;;;7.75;5.82;;;;;;;2.45;100.00;95942.19;5007701;28;20046;-71
2023/11/12 00:07:12;;;;;;;7.90;5.47;;;;;;;2.37;100.00;95938.44;4975674;28;20120;-73
2023/11/12 00:09:39;;;;;;;12.13;6.00;;;;;;;2.37;100.00;95927.63;4980752;28;20744;-72
2023/11/12 00:12:06;;;;;;;8.80;4.90;;;;;;;2.35;100.00;95939.91;4980439;28;20049;-72
2023/11/12 00:14:32;;;;;;;7.68;4.88;;;;;;;2.20;100.00;95928.59;4979898;28;20038;-74
2023/11/12 00:16:57;;;;;;;7.43;4.95;;;;;;;2.06;100.00;95931.53;4986832;28;20037;-73
2023/11/12 00:19:23;;;;;;;6.45;4.57;;;;;;;1.99;100.00;95934.00;4974972;28;20066;-72
2023/11/12 00:21:49;;;;;;;11.40;5.03;;;;;;;1.92;100.00;95925.63;4979977;28;20065;-72
2023/11/12 00:24:16;;;;;;;5.93;4.32;;;;;;;1.87;100.00;95926.63;4983429;28;20050;-72
2023/11/12 00:26:42;;;;;;;8.05;5.32;;;;;;;1.76;100.00;95919.22;4981043;28;20209;-72
2023/11/12 00:29:07;;;;;;;76.75;5.63;;;;;;;1.38;100.00;95907.41;4983370;28;20137;-70
2023/11/12 00:31:33;;;;;;;35.50;5.75;;;;;;;1.16;100.00;95910.38;4981681;28;20092;-72
2023/11/12 00:33:58;;;;;;;20.20;7.00;;;;;;;1.12;100.00;95915.66;4981347;28;20038;-73
2023/11/12 00:36:24;;;;;;;14.07;5.80;;;;;;;1.04;100.00;95913.75;4975214;28;20050;-72
2023/11/12 00:38:50;;;;;;;8.50;5.18;;;;;;;1.26;100.00;95907.31;4980251;28;20066;-72
2023/11/12 00:41:19;;;;;;;7.15;5.00;;;;;;;1.39;100.00;95902.78;4973674;28;20058;-73
2023/11/12 00:43:45;;;;;;;9.93;7.05;;;;;;;1.46;100.00;95900.34;4979821;28;20042;-73
2023/11/12 00:46:11;;;;;;;11.52;7.47;;;;;;;1.51;100.00;95897.47;4987519;28;20045;-72
2023/11/12 00:48:37;;;;;;;13.20;7.45;;;;;;;1.55;100.00;95893.03;4986168;28;20173;-72
2023/11/12 00:51:04;;;;;;;19.30;8.93;;;;;;;1.63;100.00;95886.75;4982042;28;20061;-70
2023/11/12 00:53:31;;;;;;;8.93;6.45;;;;;;;1.55;100.00;95879.53;4981178;28;20069;-70
2023/11/12 00:55:59;;;;;;;11.25;7.25;;;;;;;1.46;100.00;95873.38;4983015;28;20678;-70
2023/11/12 00:58:28;;;;;;;17.77;7.57;;;;;;;1.38;100.00;95871.53;4985816;28;20050;-71
2023/11/12 01:00:53;;;;;;;12.38;6.57;;;;;;;1.38;100.00;95872.31;4968462;28;20851;-72
2023/11/12 01:03:19;;;;;;;10.02;6.25;;;;;;;1.45;100.00;95858.31;4974296;28;20207;-72
2023/11/12 01:05:44;;;;;;;9.68;6.63;;;;;;;1.38;100.00;95860.75;4980313;28;20496;-72
2023/11/12 01:08:10;;;;;;;9.63;7.05;;;;;;;1.32;100.00;95862.84;4974834;28;20493;-72
2023/11/12 01:10:36;;;;;;;8.77;6.28;;;;;;;1.13;100.00;95858.69;4979056;28;20105;-72
2023/11/12 01:13:02;;;;;;;10.27;6.00;;;;;;;1.10;100.00;95856.63;4985352;28;20053;-72
2023/11/12 01:15:29;;;;;;;9.27;5.95;;;;;;;1.13;100.00;95864.06;4959050;28;20503;-73
2023/11/12 01:17:55;;;;;;;11.38;7.00;;;;;;;1.10;100.00;95853.94;4988198;28;20038;-74
2023/11/12 01:20:21;;;;;;;8.82;5.82;;;;;;;1.10;100.00;95863.94;4959380;28;20042;-73
2023/11/12 01:22:47;;;;;;;11.95;6.13;;;;;;;1.05;100.00;95856.81;4986466;28;20050;-73
2023/11/12 01:25:14;;;;;;;8.32;6.10;;;;;;;0.97;100.00;95864.94;4975316;28;20087;-74
2023/11/12 01:27:40;;;;;;;8.98;6.07;;;;;;;0.86;100.00;95856.44;4999278;28;20049;-71
2023/11/12 01:30:07;;;;;;;13.32;6.15;;;;;;;0.77;100.00;95859.16;4961513;28;20081;-72
2023/11/12 01:32:33;;;;;;;9.85;6.72;;;;;;;0.62;100.00;95857.00;4987017;28;20089;-73
2023/11/12 01:34:58;;;;;;;15.00;6.78;;;;;;;0.52;100.00;95855.44;4979227;28;20069;-72
2023/11/12 01:37:24;;;;;;;11.80;7.18;;;;;;;0.54;100.00;95845.13;4975617;28;20560;-72
2023/11/12 01:39:49;;;;;;;15.50;8.77;;;;;;;0.53;100.00;95840.88;5004573;28;20053;-72
2023/11/12 01:42:15;;;;;;;20.45;8.82;;;;;;;0.52;100.00;95841.97;4964632;28;20050;-72
2023/11/12 01:44:44;;;;;;;18.10;7.93;;;;;;;0.49;100.00;95838.03;4987680;28;20042;-71
2023/11/12 01:47:10;;;;;;;18.42;7.80;;;;;;;0.48;100.00;95830.25;4985980;28;20042;-73
2023/11/12 01:49:37;;;;;;;13.18;8.68;;;;;;;0.55;100.00;95833.25;4988472;28;20050;-73
2023/11/12 01:52:08;;;;;;;14.25;8.63;;;;;;;0.65;100.00;95837.47;4989677;28;20523;-71
2023/11/12 01:54:36;;;;;;;15.65;9.65;;;;;;;0.68;100.00;95831.44;4973506;28;20061;-73
2023/11/12 01:57:03;;;;;;;18.58;10.35;;;;;;;0.88;100.00;95821.84;4990974;28;20042;-72
2023/11/12 01:59:33;;;;;;;15.07;10.35;;;;;;;1.00;100.00;95821.94;4989484;28;20121;-73
2023/11/12 02:01:58;;;;;;;18.83;10.27;;;;;;;0.94;100.00;95829.44;4975871;28;20045;-73
2023/11/12 02:04:25;;;;;;;18.63;10.57;;;;;;;1.02;100.00;95822.41;4981015;28;20541;-73
2023/11/12 02:06:50;;;;;;;17.85;10.25;;;;;;;0.93;100.00;95817.03;4989198;28;20069;-73
2023/11/12 02:09:16;;;;;;;17.63;10.52;;;;;;;0.90;100.00;95814.22;4968549;28;20508;-73
2023/11/12 02:11:42;;;;;;;16.90;9.88;;;;;;;0.77;100.00;95810.63;4983967;28;20041;-74
2023/11/12 02:14:08;;;;;;;20.98;10.93;;;;;;;0.85;100.00;95812.50;4968646;28;20038;-72
2023/11/12 02:16:34;;;;;;;15.25;9.75;;;;;;;0.87;100.00;95802.19;4986784;28;20085;-72
2023/11/12 02:19:00;;;;;;;23.20;10.23;;;;;;;0.72;100.00;95794.66;4982297;28;20066;-72
2023/11/12 02:21:31;;;;;;;15.90;10.07;;;;;;;0.65;100.00;95794.38;4993550;28;20056;-72
2023/11/12 02:23:58;;;;;;;18.13;9.13;;;;;;;0.79;100.00;95796.84;4986531;28;20049;-71
2023/11/12 02:26:24;;;;;;;13.77;9.25;;;;;;;0.89;100.00;95797.25;4987889;28;20476;-74
2023/11/12 02:28:49;;;;;;;15.00;9.55;;;;;;;0.90;100.00;95787.25;4990771;28;20042;-71
2023/11/12 02:31:15;;;;;;;15.43;9.38;;;;;;;0.83;100.00;95786.97;4983937;28;20046;-74
2023/11/12 02:33:41;;;;;;;13.48;9.45;;;;;;;0.92;100.00;95788.53;4986158;28;20040;-71
2023/11/12 02:36:07;;;;;;;15.38;9.50;;;;;;;0.95;100.00;95793.28;4979705;28;20033;-72
2023/11/12 02:38:33;;;;;;;16.00;9.02;;;;;;;0.90;100.00;95787.25;4968529;28;20039;-73
2023/11/12 02:41:00;;;;;;;15.43;8.88;;;;;;;0.83;100.00;95787.78;4997207;28;20132;-70
2023/11/12 02:43:25;;;;;;;13.80;9.13;;;;;;;0.80;100.00;95783.03;4984512;28;20041;-72
2023/11/12 02:45:51;;;;;;;15.73;8.65;;;;;;;0.79;100.00;95786.84;4991647;28;20403;-72
2023/11/12 02:48:17;;;;;;;18.83;9.45;;;;;;;0.80;100.00;95783.03;4993117;28;20045;-72
2023/11/12 02:50:43;;;;;;;19.10;9.73;;;;;;;0.86;100.00;95784.41;4988950;28;20045;-71
2023/11/12 02:53:10;;;;;;;18.15;9.70;;;;;;;0.96;100.00;95772.47;4988999;28;20065;-72
2023/11/12 02:55:36;;;;;;;18.98;8.95;;;;;;;1.00;100.00;95770.69;4982916;28;20050;-73
2023/11/12 02:58:01;;;;;;;20.80;10.13;;;;;;;1.03;100.00;95770.06;4993353;28;20052;-73
2023/11/12 03:00:27;;;;;;;17.25;10.45;;;;;;;1.01;100.00;95761.50;4995254;28;20050;-73
2023/11/12 03:03:01;;;;;;;18.13;11.48;;;;;;;1.18;100.00;95771.38;5003049;28;20060;-71
2023/11/12 03:05:28;;;;;;;19.65;10.73;;;;;;;1.18;100.00;95757.09;5000178;28;20186;-73
2023/11/12 03:07:54;;;;;;;18.10;11.15;;;;;;;1.10;100.00;95746.06;4996922;28;20382;-74
2023/11/12 03:10:21;;;;;;;17.15;10.45;;;;;;;1.03;100.00;95734.22;4992298;28;20045;-74
2023/11/12 03:12:47;;;;;;;17.27;10.23;;;;;;;0.96;100.00;95723.94;4992251;28;20104;-73
2023/11/12 03:15:13;;;;;;;17.88;10.95;;;;;;;0.88;100.00;95709.41;5001762;23;20058;-68
2023/11/12 03:17:39;;;;;;;16.50;10.00;;;;;;;0.88;100.00;95701.34;4992667;28;20117;-68
2023/11/12 03:20:08;;;;;;;19.52;11.02;;;;;;;0.87;100.00;95696.25;4988816;28;20038;-68
2023/11/12 03:22:35;;;;;;;22.40;10.85;;;;;;;0.84;100.00;95691.53;4993865;28;20062;-70
2023/11/12 03:25:02;;;;;;;22.05;12.00;;;;;;;1.00;100.00;95683.63;4991492;28;20042;-70
2023/11/12 03:27:29;;;;;;;19.95;11.75;;;;;;;0.92;100.00;95682.59;4995532;28;20054;-67
2023/11/12 03:29:55;;;;;;;19.23;11.27;;;;;;;0.98;100.00;95667.78;4968384;28;20045;-70
2023/11/12 03:32:21;;;;;;;21.65;11.50;;;;;;;1.00;100.00;95662.06;4970755;28;20065;-69
2023/11/12 03:34:50;;;;;;;20.35;11.57;;;;;;;0.95;100.00;95658.47;4983652;28;20056;-69
2023/11/12 03:37:19;;;;;;;17.05;10.38;;;;;;;0.93;100.00;95651.81;4980593;28;20054;-70
2023/11/12 03:39:50;;;;;;;21.08;12.27;;;;;;;0.89;100.00;95667.84;4969803;28;20044;-70
2023/11/12 03:42:16;;;;;;;19.10;11.35;;;;;;;0.94;100.00;95664.19;4964956;28;20463;-69
2023/11/12 03:44:47;;;;;;;18.80;11.23;;;;;;;0.94;100.00;95670.34;4976256;28;20108;-70
2023/11/12 03:47:13;;;;;;;17.00;10.25;;;;;;;0.88;100.00;95665.47;4993444;28;20141;-70
2023/11/12 03:49:40;;;;;;;17.70;10.52;;;;;;;0.94;100.00;95673.03;4990300;28;20133;-70
2023/11/12 03:52:05;;;;;;;17.30;10.60;;;;;;;0.92;100.00;95666.41;4982941;28;20108;-70
2023/11/12 03:54:32;;;;;;;20.42;10.95;;;;;;;0.91;100.00;95665.59;4998997;28;20054;-69
2023/11/12 03:56:57;;;;;;;15.88;10.68;;;;;;;0.91;100.00;95667.53;4985622;28;20038;-69
2023/11/12 03:59:23;;;;;;;16.40;9.95;;;;;;;0.93;100.00;95662.59;4980581;28;20452;-69
2023/11/12 04:01:48;;;;;;;16.17;9.75;;;;;;;0.89;100.00;95659.75;4996919;28;20563;-68
2023/11/12 04:04:14;;;;;;;16.20;9.95;;;;;;;0.88;100.00;95666.28;4978579;28;20073;-70
2023/11/12 04:06:40;;;;;;;15.32;9.70;;;;;;;0.92;100.00;95661.03;5007329;28;20394;-70
2023/11/12 04:09:08;;;;;;;17.25;10.30;;;;;;;0.97;100.00;95652.72;4991060;28;20041;-69
2023/11/12 04:11:35;;;;;;;16.60;9.73;;;;;;;0.90;100.00;95657.84;4999004;28;20045;-70
2023/11/12 04:14:02;;;;;;;16.98;10.75;;;;;;;0.88;100.00;95649.31;4968170;28;20037;-70
2023/11/12 04:16:28;;;;;;;16.08;9.88;;;;;;;0.86;100.00;95652.31;4987533;28;20404;-71
2023/11/12 04:18:54;;;;;;;17.48;9.38;;;;;;;0.85;100.00;95649.97;4993711;28;20052;-69
2023/11/12 04:21:19;;;;;;;13.43;8.60;;;;;;;0.87;100.00;95645.81;4988076;28;20141;-70
2023/11/12 04:23:46;;;;;;;12.88;8.68;;;;;;;0.93;100.00;95643.72;4999961;28;20038;-71
2023/11/12 04:26:13;;;;;;;14.75;10.60;;;;;;;1.03;100.00;95643.31;4987218;28;20515;-71
2023/11/12 04:28:38;;;;;;;16.27;9.02;;;;;;;0.95;100.00;95641.47;4982679;28;20046;-69
2023/11/12 04:31:03;;;;;;;13.25;8.32;;;;;;;0.91;100.00;95635.94;4990041;28;20049;-69
2023/11/12 04:33:29;;;;;;;11.88;7.88;;;;;;;1.01;100.00;95626.69;4996962;28;20448;-68
2023/11/12 04:35:55;;;;;;;14.15;8.15;;;;;;;1.19;100.00;95630.00;4999833;28;20092;-70
2023/11/12 04:38:20;;;;;;;11.77;7.82;;;;;;;1.31;100.00;95634.63;4987186;28;20104;-69
2023/11/12 04:40:49;;;;;;;13.90;7.82;;;;;;;1.18;100.00;95631.13;4990173;28;20511;-70
2023/11/12 04:43:17;;;;;;;16.38;7.70;;;;;;;1.05;100.00;95622.19;4973272;28;20043;-71
2023/11/12 04:45:44;;;;;;;11.07;7.30;;;;;;;0.98;100.00;95623.88;4991429;28;20050;-72
2023/11/12 04:48:11;;;;;;;11.15;6.63;;;;;;;1.02;100.00;95628.25;4964477;28;20034;-71
2023/11/12 04:50:40;;;;;;;10.55;6.63;;;;;;;1.18;100.00;95635.72;4999143;28;20115;-71
2023/11/12 04:53:07;;;;;;;12.85;7.68;;;;;;;1.45;100.00;95637.06;4960591;28;20042;-71
2023/11/12 04:55:33;;;;;;;10.07;6.30;;;;;;;1.45;100.00;95623.56;4991492;28;20097;-71
2023/11/12 04:57:58;;;;;;;9.98;6.22;;;;;;;1.55;100.00;95635.81;4983874;28;20042;-70
2023/11/12 05:00:24;;;;;;;10.77;6.15;;;;;;;1.44;100.00;95628.19;4986525;28;20536;-71
2023/11/12 05:02:49;;;;;;;8.48;5.72;;;;;;;1.62;100.00;95620.69;5000095;28;20137;-70
2023/11/12 05:05:16;;;;;;;9.75;5.43;;;;;;;1.83;100.00;95622.50;4950752;28;20073;-71
2023/11/12 05:07:43;;;;;;;8.45;6.00;;;;;;;1.94;100.00;95620.91;4994001;28;20105;-71
2023/11/12 05:10:11;;;;;;;10.43;6.25;;;;;;;1.96;100.00;95615.19;4979395;28;20113;-71
2023/11/12 05:12:37;;;;;;;10.38;5.20;;;;;;;2.03;100.00;95616.19;4982419;28;20108;-71
2023/11/12 05:15:07;;;;;;;6.50;4.75;;;;;;;1.92;100.00;95629.34;4982697;28;20061;-71
2023/11/12 05:17:32;;;;;;;6.75;5.18;;;;;;;1.86;100.00;95638.81;4987289;28;20046;-71
2023/11/12 05:19:58;;;;;;;7.63;4.93;;;;;;;1.86;100.00;95638.81;4979243;28;20038;-72
2023/11/12 05:22:24;;;;;;;8.30;4.65;;;;;;;1.85;100.00;95641.84;4974627;28;20054;-71
2023/11/12 05:24:51;;;;;;;6.88;4.47;;;;;;;1.79;100.00;95645.91;4984032;28;20522;-69
2023/11/12 05:27:18;;;;;;;7.07;4.85;;;;;;;1.81;100.00;95644.44;4979027;28;20400;-71
2023/11/12 05:29:43;;;;;;;5.85;4.18;;;;;;;1.82;100.00;95643.31;4988788;28;20088;-72
2023/11/12 05:32:09;;;;;;;7.35;3.75;;;;;;;1.77;100.00;95640.81;4964646;28;20030;-72
2023/11/12 05:34:34;;;;;;;6.55;4.35;;;;;;;1.57;100.00;95636.28;4990966;28;20085;-70
2023/11/12 05:37:00;;;;;;;6.88;4.32;;;;;;;1.26;100.00;95630.25;4986479;28;20047;-70
2023/11/12 05:39:25;;;;;;;6.78;3.92;;;;;;;1.22;100.00;95629.31;4981605;28;20046;-71
2023/11/12 05:41:51;;;;;;;6.60;4.05;;;;;;;1.24;100.00;95629.81;4997810;28;20045;-71
2023/11/12 05:44:17;;;;;;;5.22;4.03;;;;;;;1.30;100.00;95633.09;4986782;28;20088;-71
2023/11/12 05:46:42;;;;;;;7.20;4.22;;;;;;;1.36;100.00;95639.84;4972872;28;20413;-71
2023/11/12 05:49:07;;;;;;;4.82;3.45;;;;;;;1.46;100.00;95652.91;4984915;28;20036;-71
2023/11/12 05:51:33;;;;;;;6.25;3.75;;;;;;;1.49;100.00;95641.44;4967096;28;20050;-72
2023/11/12 05:53:58;;;;;;;5.72;3.92;;;;;;;1.59;100.00;95651.03;4974153;28;20043;-71
2023/11/12 05:56:24;;;;;;;7.45;3.72;;;;;;;1.66;100.00;95653.19;4976787;28;20487;-72
2023/11/12 05:58:49;;;;;;;5.15;3.70;;;;;;;1.59;100.00;95664.53;4971972;28;20374;-71
2023/11/12 06:01:15;;;;;;;4.28;3.03;;;;;;;1.53;100.00;95665.84;4986210;28;20476;-71
2023/11/12 06:03:40;;;;;;;4.00;3.20;;;;;;;1.59;100.00;95667.22;4985011;28;20125;-72
2023/11/12 06:06:06;;;;;;;5.32;3.35;;;;;;;1.75;100.00;95661.16;4969699;28;20827;-72
2023/11/12 06:08:31;;;;;;;6.60;3.45;;;;;;;1.91;100.00;95670.22;4984144;28;20066;-71
2023/11/12 06:10:57;;;;;;;4.20;3.20;;;;;;;1.96;100.00;95680.00;5001210;28;20041;-71
2023/11/12 06:13:22;;;;;;;8.02;3.47;;;;;;;1.79;100.00;95689.88;4956799;28;20834;-71
2023/11/12 06:15:48;;;;;;;5.10;3.45;;;;;;;1.86;100.00;95695.50;4981559;28;20129;-71
2023/11/12 06:18:13;;;;;;;5.05;3.63;;;;;;;1.80;100.00;95701.44;4978081;28;20041;-71
2023/11/12 06:20:39;;;;;;;6.75;3.90;;;;;;;1.75;100.00;95697.06;4966846;28;20046;-71
2023/11/12 06:23:06;;;;;;;4.60;3.50;;;;;;;1.68;100.00;95703.00;4986894;28;20056;-72
2023/11/12 06:25:32;;;;;;;5.93;3.45;;;;;;;1.60;100.00;95703.88;5004089;28;20046;-72
2023/11/12 06:27:58;;;;;;;5.32;3.60;;;;;;;1.63;100.00;95708.59;5003226;28;20403;-71
2023/11/12 06:30:23;;;;;;;6.15;3.65;;;;;;;1.61;100.00;95713.56;5003434;28;20048;-71
2023/11/12 06:32:50;;;;;;;5.93;3.65;;;;;;;1.67;100.00;95717.59;5001761;28;20064;-72
2023/11/12 06:35:15;;;;;;;7.20;4.10;;;;;;;1.67;100.00;95722.22;4995336;28;20041;-71
2023/11/12 06:37:41;;;;;;;6.35;4.30;;;;;;;1.74;100.00;95729.78;4983441;28;20095;-72
2023/11/12 06:40:07;;;;;;;8.38;5.10;;;;;;;1.81;100.00;95724.63;4996761;28;20037;-71
2023/11/12 06:42:33;;;;;;;11.88;5.30;;;;;;;1.80;100.00;95726.56;4993056;28;20048;-71
2023/11/12 06:44:58;;;;;;;7.25;5.15;;;;;;;1.81;100.00;95741.63;5000229;28;20539;-72
2023/11/12 06:47:24;;;;;;;9.05;5.43;;;;;;;1.83;100.00;95744.00;4969264;28;20065;-70
2023/11/12 06:49:49;;;;;;;11.75;4.97;;;;;;;1.82;100.00;95754.00;5001529;28;20033;-72
2023/11/12 06:52:15;;;;;;;9.48;5.10;;;;;;;1.86;100.00;95756.84;4987128;28;20048;-70
2023/11/12 06:54:42;;;;;;;8.13;5.38;;;;;;;1.82;100.00;95751.31;4999530;28;20038;-69
2023/11/12 06:57:07;;;;;;;7.15;4.88;;;;;;;1.88;100.00;95755.38;4987125;28;20488;-70
2023/11/12 06:59:33;;;;;;;7.40;4.70;;;;;;;1.87;100.00;95745.72;5000094;28;20080;-70
2023/11/12 07:01:58;;;;;;;9.10;5.13;;;;;;;1.85;100.00;95744.44;4994247;28;20041;-70
2023/11/12 07:04:24;;;;;;;7.78;5.30;;;;;;;2.01;100.00;95737.28;4997166;28;20068;-70
2023/11/12 07:06:49;;;;;;;7.68;4.68;;;;;;;2.12;100.00;95736.84;5002114;28;20061;-71
2023/11/12 07:09:15;;;;;;;8.13;5.85;;;;;;;2.09;100.00;95735.63;4971082;28;20048;-71
2023/11/12 07:11:41;;;;;;;10.93;5.95;;;;;;;2.09;100.00;95735.63;4986392;28;20042;-71
2023/11/12 07:14:06;;;;;;;9.65;5.95;;;;;;;2.03;100.00;95735.03;4998274;28;20026;-71
2023/11/12 07:16:32;;;;;;;11.25;7.45;;;;;;;2.08;100.00;95737.50;5001838;28;20500;-71
2023/11/12 07:18:57;;;;;;;10.57;6.53;;;;;;;2.14;100.00;95738.09;5001762;28;20396;-72
2023/11/12 07:21:34;;;;;;;8.13;6.07;;;;;;;2.10;100.00;95739.88;4970973;28;20332;-70
2023/11/12 07:23:59;;;;;;;9.25;6.00;;;;;;;2.06;100.00;95742.47;4996754;28;20035;-71
2023/11/12 07:26:26;;;;;;;9.30;5.60;;;;;;;2.04;100.00;95744.72;4975399;28;20378;-71
2023/11/12 07:28:52;;;;;;;16.50;5.60;;;;;;;2.19;100.00;95750.59;4997111;28;20065;-71
2023/11/12 07:31:20;;;;;;;9.50;5.10;;;;;;;2.19;100.00;95756.00;4997448;28;20457;-71
2023/11/12 07:33:46;;;;;;;7.20;4.82;;;;;;;2.30;100.00;95754.44;4983190;28;20108;-71
2023/11/12 07:36:12;;;;;;;8.30;5.75;;;;;;;2.38;100.00;95769.00;4986848;28;20034;-70
2023/11/12 07:38:38;;;;;;;7.07;4.90;;;;;;;2.36;100.00;95777.44;5001081;28;20040;-71
2023/11/12 07:41:07;;;;;;;9.73;5.00;;;;;;;2.38;100.00;95790.59;4996443;28;20285;-72
2023/11/12 07:43:33;;;;;;;7.80;5.13;;;;;;;2.27;100.00;95792.97;5002445;28;20034;-70
2023/11/12 07:45:58;;;;;;;10.50;6.15;;;;;;;2.17;100.00;95796.06;5001786;28;20042;-71
2023/11/12 07:48:24;;;;;;;13.98;10.25;;;;;;;2.08;100.00;95788.84;5007057;28;20426;-70
2023/11/12 07:50:49;;;;;;;11.65;8.77;;;;;;;2.26;100.00;95794.84;5001449;28;20045;-70
2023/11/12 07:53:14;;;;;;;11.57;7.65;;;;;;;2.45;100.00;95798.94;4988408;28;20101;-70
2023/11/12 07:55:41;;;;;;;14.50;6.47;;;;;;;2.66;100.00;95796.91;4998686;28;20044;-70
2023/11/12 07:58:07;;;;;;;12.27;6.07;;;;;;;2.74;100.00;95797.97;4996258;28;20042;-70
2023/11/12 08:00:32;;;;;;;11.50;6.03;;;;;;;2.75;100.00;95802.22;4991972;28;20407;-70
2023/11/12 08:02:58;;;;;;;10.50;5.60;;;;;;;2.87;100.00;95806.84;4998631;28;20493;-71
2023/11/12 08:05:23;;;;;;;10.90;6.13;;;;;;;2.85;100.00;95807.19;4995707;28;20627;-70
2023/11/12 08:07:50;;;;;;;9.48;5.95;;;;;;;2.91;100.00;95804.25;4989216;28;20400;-70
2023/11/12 08:10:18;;;;;;;8.95;5.85;;;;;;;2.95;100.00;95811.34;4983222;28;20034;-71
2023/11/12 08:12:43;;;;;;;12.50;6.88;;;;;;;3.04;100.00;95805.81;4982300;28;20045;-71
2023/11/12 08:15:12;;;;;;;11.40;6.85;;;;;;;3.12;100.00;95806.84;4990336;28;20401;-72
2023/11/12 08:17:38;;;;;;;17.33;8.35;;;;;;;3.21;100.00;95815.63;4982287;28;20193;-70
2023/11/12 08:20:04;;;;;;;18.35;9.90;;;;;;;3.23;100.00;95816.84;4983505;28;20150;-73
2023/11/12 08:22:30;;;;;;;13.95;9.38;;;;;;;3.24;100.00;95828.47;4997523;28;20516;-72
2023/11/12 08:24:56;;;;;;;14.55;8.55;;;;;;;3.14;100.00;95823.53;4966888;28;20038;-71
2023/11/12 08:27:22;;;;;;;15.23;11.00;;;;;;;2.83;100.00;95836.50;4988448;28;20054;-75
2023/11/12 08:29:48;;;;;;;15.82;11.07;;;;;;;2.79;100.00;95834.78;4987654;28;20795;-70
2023/11/12 08:32:14;;;;;;;18.38;10.88;;;;;;;2.95;100.00;95834.91;4980648;28;20520;-69
2023/11/12 08:34:39;;;;;;;17.90;10.35;;;;;;;3.06;100.00;95833.31;4969025;28;20043;-69
2023/11/12 08:37:05;;;;;;;16.58;9.20;;;;;;;3.15;100.00;95831.31;4983882;28;20038;-70
2023/11/12 08:39:30;;;;;;;13.05;9.15;;;;;;;3.16;100.00;95832.88;4989370;28;20053;-70
2023/11/12 08:41:55;;;;;;;17.00;10.50;;;;;;;3.39;100.00;95827.78;4955865;28;20042;-69
2023/11/12 08:44:21;;;;;;;14.45;9.32;;;;;;;3.54;100.00;95831.69;4986681;28;20066;-69
2023/11/12 08:46:46;;;;;;;17.83;10.35;;;;;;;3.64;100.00;95831.22;4989330;28;20045;-69
2023/11/12 08:49:12;;;;;;;13.68;8.82;;;;;;;3.87;100.00;95828.00;4980246;28;20042;-68
2023/11/12 08:51:37;;;;;;;13.25;8.00;;;;;;;4.07;100.00;95839.78;4988565;28;20443;-69
2023/11/12 08:54:04;;;;;;;10.82;7.70;;;;;;;4.12;100.00;95828.66;4971117;28;20132;-70
2023/11/12 08:56:30;;;;;;;15.27;7.53;;;;;;;4.18;100.00;95823.81;4990553;28;20201;-69
2023/11/12 08:58:56;;;;;;;10.70;7.22;;;;;;;4.26;100.00;95825.56;4998989;28;20451;-68
2023/11/12 09:01:22;;;;;;;12.48;7.22;;;;;;;4.37;100.00;95831.25;4994134;28;20042;-68
2023/11/12 09:03:47;;;;;;;16.35;7.50;;;;;;;4.45;100.00;95824.91;4981135;28;20095;-68
2023/11/12 09:06:13;;;;;;;12.32;8.40;;;;;;;4.57;100.00;95829.44;4995312;28;20238;-70
2023/11/12 09:08:38;;;;;;;14.10;8.93;;;;;;;4.68;100.00;95827.00;4993773;28;20074;-71
2023/11/12 09:11:03;;;;;;;12.40;8.65;;;;;;;4.82;100.00;95824.63;4981604;28;20057;-70
2023/11/12 09:13:29;;;;;;;14.55;8.80;;;;;;;4.79;100.00;95833.50;4964271;28;20501;-70
2023/11/12 09:15:54;;;;;;;14.00;8.57;;;;;;;4.84;100.00;95835.16;4969109;28;20151;-71
2023/11/12 09:18:20;;;;;;;14.05;9.20;;;;;;;4.89;100.00;95834.88;4980035;28;20034;-70
2023/11/12 09:20:46;;;;;;;14.80;9.60;;;;;;;4.97;100.00;95832.00;4994141;28;20054;-70
2023/11/12 09:23:12;;;;;;;13.65;9.02;;;;;;;4.95;100.00;95841.59;4992101;28;20047;-70
2023/11/12 09:25:38;;;;;;;14.02;8.82;;;;;;;4.86;100.00;95836.38;4981667;28;20058;-70
2023/11/12 09:28:06;;;;;;;17.75;10.32;;;;;;;4.67;100.00;95842.50;4966752;28;20444;-71
2023/11/12 09:30:33;;;;;;;15.57;9.48;;;;;;;4.60;100.00;95847.72;4985862;28;20561;-70
2023/11/12 09:32:59;;;;;;;14.30;8.98;;;;;;;4.83;100.00;95850.63;4991480;28;20509;-69
2023/11/12 09:35:25;;;;;;;16.17;9.60;;;;;;;4.86;100.00;95847.25;4976358;28;20042;-69
2023/11/12 09:37:50;;;;;;;14.38;9.07;;;;;;;4.89;100.00;95859.31;4996005;28;20046;-69
2023/11/12 09:40:16;;;;;;;14.25;8.98;;;;;;;4.94;100.00;95864.47;4982553;28;20124;-70
2023/11/12 09:42:51;;;;;;;13.60;8.88;;;;;;;4.92;100.00;95856.69;4980668;28;20111;-69
2023/11/12 09:45:20;;;;;;;14.07;8.93;;;;;;;4.86;100.00;95868.94;4978904;28;20203;-69
2023/11/12 09:47:54;;;;;;;12.98;8.98;;;;;;;4.56;100.00;95868.56;4990487;28;20057;-70
2023/11/12 09:50:21;;;;;;;13.88;9.13;;;;;;;4.37;100.00;95863.78;4982270;28;20215;-69
2023/11/12 09:52:47;;;;;;;13.13;9.05;;;;;;;4.40;100.00;95871.25;4973171;28;20049;-69
2023/11/12 09:55:18;;;;;;;17.05;10.30;;;;;;;4.44;100.00;95866.69;4968490;28;20098;-69
2023/11/12 09:57:44;;;;;;;13.95;9.57;;;;;;;4.50;100.00;95870.75;4994675;28;20078;-68
2023/11/12 10:00:12;;;;;;;16.38;10.18;;;;;;;4.26;100.00;95865.44;4983814;28;20077;-69
2023/11/12 10:02:41;;;;;;;18.63;10.43;;;;;;;4.22;100.00;95860.69;4992603;28;20046;-69
2023/11/12 10:05:10;;;;;;;16.08;9.63;;;;;;;4.45;100.00;95864.75;4992137;28;20045;-69
2023/11/12 10:07:42;;;;;;;14.88;10.07;;;;;;;4.61;100.00;95868.31;4989778;28;20042;-69
2023/11/12 10:10:37;;;;;;;15.27;9.55;;;;;;;4.80;100.00;95864.91;4982130;28;20554;-69
2023/11/12 10:13:05;;;;;;;16.73;10.00;;;;;;;4.98;100.00;95868.06;4982722;28;20042;-69
2023/11/12 10:15:35;;;;;;;13.75;9.95;;;;;;;5.12;100.00;95868.41;4987878;28;20043;-68
2023/11/12 10:18:02;;;;;;;16.40;10.55;;;;;;;4.96;100.00;95864.91;4986635;28;20535;-68
2023/11/12 10:20:40;;;;;;;17.73;11.27;;;;;;;4.67;100.00;95869.63;4973126;28;20509;-69
2023/11/12 10:23:20;;;;;;;19.40;11.43;;;;;;;4.90;100.00;95869.03;4999270;28;20125;-69
2023/11/12 10:25:49;;;;;;;14.68;10.23;;;;;;;5.06;100.00;95856.25;4980559;28;20397;-68
2023/11/12 10:28:15;;;;;;;15.80;9.75;;;;;;;5.20;100.00;95861.19;4995098;28;20065;-68
2023/11/12 10:30:41;;;;;;;15.63;9.23;;;;;;;5.27;100.00;95855.94;4998115;28;20050;-69
2023/11/12 10:33:20;;;;;;;14.05;10.00;;;;;;;5.37;100.00;95854.63;4991388;28;20038;-69
2023/11/12 10:35:46;;;;;;;14.65;9.43;;;;;;;5.44;100.00;95854.78;4992586;28;20060;-69
2023/11/12 10:38:15;;;;;;;13.35;8.57;;;;;;;5.47;100.00;95856.00;4979307;28;20153;-69
2023/11/12 10:41:07;;;;;;;13.70;8.80;;;;;;;5.51;100.00;95856.84;4990753;28;20055;-69
2023/11/12 10:43:35;;;;;;;12.65;8.38;;;;;;;5.52;100.00;95853.78;4994245;28;20651;-69
2023/11/12 10:46:04;;;;;;;13.63;8.48;;;;;;;5.52;100.00;95856.50;4992435;28;20455;-69
2023/11/12 10:48:35;;;;;;;11.07;7.72;;;;;;;5.50;100.00;95850.66;4983579;28;20452;-69
2023/11/12 10:51:03;;;;;;;11.90;8.35;;;;;;;5.45;100.00;95858.28;4992444;28;20076;-69
2023/11/12 10:53:31;;;;;;;12.18;7.03;;;;;;;5.42;100.00;95853.56;4990830;28;20068;-68
2023/11/12 10:56:01;;;;;;;12.02;8.00;;;;;;;5.49;100.00;95851.00;4991859;28;20092;-68
2023/11/12 10:58:30;;;;;;;;;;;;;;;5.43;100.00;95847.78;4997424;28;20149;-69
2023/11/12 11:00:58;;;;;;;11.48;7.97;;;;;;;5.44;100.00;95849.34;4973727;28;19953;-70
2023/11/12 11:03:30;;;;;;;15.35;9.13;;;;;;;5.40;100.00;95848.47;4990123;28;20148;-70
2023/11/12 11:05:58;;;;;;;10.90;7.45;;;;;;;5.42;100.00;95850.84;5000555;28;20120;-70
2023/11/12 11:08:24;;;;;;;11.43;8.35;;;;;;;5.38;100.00;95845.31;4980990;28;20046;-70
2023/11/12 11:10:50;;;;;;;12.52;8.15;;;;;;;5.46;100.00;95849.78;4996770;28;20034;-70
2023/11/12 11:13:16;;;;;;;11.48;7.63;;;;;;;5.49;100.00;95843.66;4964486;28;20161;-70
2023/11/12 11:15:54;;;;;;;11.85;7.50;;;;;;;5.51;100.00;95840.56;4998997;28;20046;-70
2023/11/12 11:18:31;;;;;;;11.38;7.93;;;;;;;5.30;100.00;95840.88;4991445;28;20057;-70
2023/11/12 11:21:03;;;;;;;11.52;8.10;;;;;;;5.41;100.00;95839.19;4992408;28;20100;-70
2023/11/12 11:23:55;;;;;;;12.75;7.50;;;;;;;5.29;100.00;95840.09;4999629;28;20050;-71
2023/11/12 11:26:27;;;;;;;12.25;8.93;;;;;;;5.27;100.00;95845.09;4983070;28;20048;-71